Cape Balder — V7KA5 — position and weather

sailwx.info

Track history (hours):
 
Tides and Currents Weather Stations Pressure Air Temp Water Temp Dewpoint Dewpoint Depression Visibility Wind Speed Wind Dir Waves Ship Positions

Cape Balder

Last reported at 2015-May-19 20:32 UTC. Time now 2015-May-22 22:16 UTC.
Position N 35°60' W 005°10'.

Length 274 m; draft 9.1 m.

Type: Ship. MMSI: 538005854.

Date/timePositionNaut miles runAvg speedWind from/ knotsBaromVisibWave heightAir tempDewpointWater temp
2015-May-19 20:32N 35°60' W 005°10'1414.5
2015-May-19 19:33N 35°57' W 005°28'  
2015-May-17 04:21N 34°41' W 006°59'57 1.1
2015-May-15 01:12N 33°48' W 007°22'0 0.0
2015-May-14 22:05N 33°48' W 007°22'0 0.0
2015-May-14 21:22N 33°48' W 007°22'53 7.8
2015-May-14 14:33N 34°38' W 007°01'107 9.4
2015-May-14 03:09N 35°58' W 005°34'5 7.7
2015-May-14 02:32N 35°59' W 005°28'9 8.6
2015-May-14 01:33N 36°02' W 005°19'95 9.2
2015-May-13 15:17N 36°17' W 003°22'10 9.8
2015-May-13 14:14N 36°19' W 003°10'7 9.5
2015-May-13 13:30N 36°20' W 003°01'1110.0
2015-May-13 12:22N 36°22' W 002°47'9 9.8
2015-May-13 11:24N 36°23' W 002°36'910.1
2015-May-13 10:29N 36°24' W 002°24'910.1
2015-May-13 09:33N 36°26' W 002°13'1010.2
2015-May-13 08:33N 36°28' W 002°00'10 9.8
2015-May-13 07:33N 36°30' W 001°49'1010.0
2015-May-13 06:33N 36°32' W 001°36'1010.0
2015-May-13 05:33N 36°34' W 001°24'1010.1
2015-May-13 04:33N 36°37' W 001°12'1010.3
2015-May-13 03:33N 36°39' W 000°59'1010.4
2015-May-13 02:33N 36°41' W 000°47'1110.5
2015-May-13 01:33N 36°43' W 000°34'10 9.9
2015-May-13 00:33N 36°45' W 000°22'1010.1
2015-May-12 23:33N 36°47' W 000°09'1010.1
2015-May-12 22:33N 36°50' E 000°03'1010.0
2015-May-12 21:33N 36°51' E 000°15'10 9.8
2015-May-12 20:33N 36°54' E 000°27'10 9.9
2015-May-12 19:33N 36°56' E 000°39'1010.2
2015-May-12 18:33N 36°58' E 000°51'1010.2
2015-May-12 17:33N 37°00' E 001°04'1010.3
2015-May-12 16:33N 37°02' E 001°17'1010.1
2015-May-12 15:33N 37°04' E 001°29'10 9.8
2015-May-12 14:33N 37°07' E 001°41'10 9.5
2015-May-12 13:33N 37°09' E 001°53'9 9.4
2015-May-12 12:33N 37°10' E 002°04'10 9.7
2015-May-12 11:33N 37°11' E 002°16'10 9.7
2015-May-12 10:33N 37°12' E 002°28'10 9.7
2015-May-12 09:33N 37°13' E 002°40'1010.1
2015-May-12 08:33N 37°14' E 002°53'10 9.9
2015-May-12 07:33N 37°15' E 003°05'10 9.6
2015-May-12 06:33N 37°16' E 003°17'10 9.2
2015-May-12 05:29N 37°17' E 003°30'9 9.3
2015-May-12 04:33N 37°18' E 003°40'10 9.8
2015-May-12 03:32N 37°19' E 003°53'10 9.9
2015-May-12 02:34N 37°20' E 004°05'1010.0
2015-May-12 01:33N 37°21' E 004°18'9 9.4
2015-May-12 00:33N 37°22' E 004°29'1010.2
2015-May-11 23:33N 37°23' E 004°42'1010.4
2015-May-11 22:33N 37°24' E 004°55'1010.2
2015-May-11 21:34N 37°25' E 005°08'1010.2
2015-May-11 20:33N 37°26' E 005°21'1010.3
2015-May-11 19:33N 37°27' E 005°34'10 9.9
2015-May-11 18:33N 37°28' E 005°46'1010.0
2015-May-11 17:33N 37°29' E 005°59'1110.5
2015-May-11 16:33N 37°30' E 006°12'1110.7
2015-May-11 15:32N 37°31' E 006°25'1310.2
2015-May-11 14:18N 37°32' E 006°41'8910.0
2015-May-11 05:26N 37°41' E 008°33'240 9.2
2015-May-10 03:26N 36°42' E 013°25'8 9.5
2015-May-10 02:33N 36°39' E 013°34'28 9.3
2015-May-09 23:33N 36°30' E 014°07'10 9.9
2015-May-09 22:34N 36°26' E 014°19'1010.1
2015-May-09 21:33N 36°23' E 014°31'10 9.9
2015-May-09 20:33N 36°19' E 014°42'  
Track history (hours):
 
Tides and Currents Weather Stations Pressure Air Temp Water Temp Dewpoint Dewpoint Depression Visibility Wind Speed Wind Dir Waves Ship Positions

Cape Balder

Last reported at 2015-May-19 20:32 UTC. Time now 2015-May-22 22:16 UTC.
Position N 35°60' W 005°10'.

Length 274 m; draft 9.1 m.

Type: Ship. MMSI: 538005854.

Date/timePositionNaut miles runAvg speedWind from/ knotsBaromVisibWave heightAir tempDewpointWater temp
2015-May-19 20:32N 35°60' W 005°10'1414.5
2015-May-19 19:33N 35°57' W 005°28'  
2015-May-17 04:21N 34°41' W 006°59'57 1.1
2015-May-15 01:12N 33°48' W 007°22'0 0.0
2015-May-14 22:05N 33°48' W 007°22'0 0.0
2015-May-14 21:22N 33°48' W 007°22'53 7.8
2015-May-14 14:33N 34°38' W 007°01'107 9.4
2015-May-14 03:09N 35°58' W 005°34'5 7.7
2015-May-14 02:32N 35°59' W 005°28'9 8.6
2015-May-14 01:33N 36°02' W 005°19'95 9.2
2015-May-13 15:17N 36°17' W 003°22'10 9.8
2015-May-13 14:14N 36°19' W 003°10'7 9.5
2015-May-13 13:30N 36°20' W 003°01'1110.0
2015-May-13 12:22N 36°22' W 002°47'9 9.8
2015-May-13 11:24N 36°23' W 002°36'910.1
2015-May-13 10:29N 36°24' W 002°24'910.1
2015-May-13 09:33N 36°26' W 002°13'1010.2
2015-May-13 08:33N 36°28' W 002°00'10 9.8
2015-May-13 07:33N 36°30' W 001°49'1010.0
2015-May-13 06:33N 36°32' W 001°36'1010.0
2015-May-13 05:33N 36°34' W 001°24'1010.1
2015-May-13 04:33N 36°37' W 001°12'1010.3
2015-May-13 03:33N 36°39' W 000°59'1010.4
2015-May-13 02:33N 36°41' W 000°47'1110.5
2015-May-13 01:33N 36°43' W 000°34'10 9.9
2015-May-13 00:33N 36°45' W 000°22'1010.1
2015-May-12 23:33N 36°47' W 000°09'1010.1
2015-May-12 22:33N 36°50' E 000°03'1010.0
2015-May-12 21:33N 36°51' E 000°15'10 9.8
2015-May-12 20:33N 36°54' E 000°27'10 9.9
2015-May-12 19:33N 36°56' E 000°39'1010.2
2015-May-12 18:33N 36°58' E 000°51'1010.2
2015-May-12 17:33N 37°00' E 001°04'1010.3
2015-May-12 16:33N 37°02' E 001°17'1010.1
2015-May-12 15:33N 37°04' E 001°29'10 9.8
2015-May-12 14:33N 37°07' E 001°41'10 9.5
2015-May-12 13:33N 37°09' E 001°53'9 9.4
2015-May-12 12:33N 37°10' E 002°04'10 9.7
2015-May-12 11:33N 37°11' E 002°16'10 9.7
2015-May-12 10:33N 37°12' E 002°28'10 9.7
2015-May-12 09:33N 37°13' E 002°40'1010.1
2015-May-12 08:33N 37°14' E 002°53'10 9.9
2015-May-12 07:33N 37°15' E 003°05'10 9.6
2015-May-12 06:33N 37°16' E 003°17'10 9.2
2015-May-12 05:29N 37°17' E 003°30'9 9.3
2015-May-12 04:33N 37°18' E 003°40'10 9.8
2015-May-12 03:32N 37°19' E 003°53'10 9.9
2015-May-12 02:34N 37°20' E 004°05'1010.0
2015-May-12 01:33N 37°21' E 004°18'9 9.4
2015-May-12 00:33N 37°22' E 004°29'1010.2
2015-May-11 23:33N 37°23' E 004°42'1010.4
2015-May-11 22:33N 37°24' E 004°55'1010.2
2015-May-11 21:34N 37°25' E 005°08'1010.2
2015-May-11 20:33N 37°26' E 005°21'1010.3
2015-May-11 19:33N 37°27' E 005°34'10 9.9
2015-May-11 18:33N 37°28' E 005°46'1010.0
2015-May-11 17:33N 37°29' E 005°59'1110.5
2015-May-11 16:33N 37°30' E 006°12'1110.7
2015-May-11 15:32N 37°31' E 006°25'1310.2
2015-May-11 14:18N 37°32' E 006°41'8910.0
2015-May-11 05:26N 37°41' E 008°33'240 9.2
2015-May-10 03:26N 36°42' E 013°25'8 9.5
2015-May-10 02:33N 36°39' E 013°34'28 9.3
2015-May-09 23:33N 36°30' E 014°07'10 9.9
2015-May-09 22:34N 36°26' E 014°19'1010.1
2015-May-09 21:33N 36°23' E 014°31'10 9.9
2015-May-09 20:33N 36°19' E 014°42'  

Dump ship's entire track history